Time;durP1;ratioP1;P1;durP2;ratioP2;P2;SDS_P1;SDS_P2;PMS_P1;PMS_P2;Temp;Humidity;BMP_temperature;BMP_pressure;BME280_temperature;BME280_humidity;BME280_pressure;Samples;Min_cycle;Max_cycle;Signal;HPM_P1;HPM_P2
2023/01/15 00:00:59;;;;;;;4.40;0.75;;;9.30;86.60;;;;;;5077705;28;20042;-76
2023/01/15 00:03:24;;;;;;;3.45;0.90;;;9.20;86.30;;;;;;5095420;28;20028;-75
2023/01/15 00:05:50;;;;;;;1.33;0.65;;;9.20;86.30;;;;;;5077847;28;20036;-75
2023/01/15 00:08:16;;;;;;;5.57;0.80;;;9.20;86.50;;;;;;5044326;28;20033;-76
2023/01/15 00:10:41;;;;;;;3.33;0.85;;;9.20;86.90;;;;;;5060810;28;20033;-76
2023/01/15 00:13:07;;;;;;;3.67;0.80;;;9.20;87.20;;;;;;5060854;28;20033;-75
2023/01/15 00:15:32;;;;;;;6.45;0.93;;;9.20;86.90;;;;;;5060898;28;20074;-75
2023/01/15 00:17:58;;;;;;;3.80;0.68;;;9.20;86.90;;;;;;5077437;28;20105;-75
2023/01/15 00:20:24;;;;;;;3.30;0.90;;;9.20;86.80;;;;;;5077368;28;20051;-75
2023/01/15 00:22:50;;;;;;;3.55;0.80;;;9.10;85.80;;;;;;5077470;28;20033;-75
2023/01/15 00:28:00;;;;;;;5.40;0.70;;;9.10;85.30;;;;;;5080097;28;20109;-75
2023/01/15 00:30:25;;;;;;;4.82;0.90;;;9.10;85.50;;;;;;5094801;28;20036;-75
2023/01/15 00:32:51;;;;;;;4.78;1.35;;;9.10;83.70;;;;;;5094996;28;20042;-75
2023/01/15 00:35:19;;;;;;;2.97;1.00;;;9.10;83.10;;;;;;5043918;28;20040;-76
2023/01/15 00:37:45;;;;;;;5.03;0.90;;;9.10;84.00;;;;;;5094876;28;20017;-75
2023/01/15 00:40:12;;;;;;;3.58;0.63;;;9.20;82.40;;;;;;5060331;28;20060;-76
2023/01/15 00:42:38;;;;;;;2.90;0.82;;;9.20;82.40;;;;;;5076894;28;20046;-75
2023/01/15 00:45:11;;;;;;;5.32;0.63;;;9.20;83.20;;;;;;5094642;28;20054;-75
2023/01/15 00:47:39;;;;;;;2.53;0.63;;;9.20;82.80;;;;;;5076866;28;20043;-75
2023/01/15 00:50:12;;;;;;;5.43;0.80;;;9.20;82.70;;;;;;5076684;28;20032;-75
2023/01/15 00:52:38;;;;;;;5.25;1.00;;;9.10;82.70;;;;;;5076867;28;20020;-75
2023/01/15 00:55:05;;;;;;;2.35;0.80;;;9.10;83.10;;;;;;5094414;28;20489;-76
2023/01/15 00:57:31;;;;;;;2.92;0.55;;;9.10;83.50;;;;;;5076669;28;20025;-76
2023/01/15 00:59:57;;;;;;;3.15;0.70;;;9.10;83.80;;;;;;5094302;28;20028;-75
2023/01/15 01:02:22;;;;;;;3.38;1.00;;;9.00;85.40;;;;;;5059829;28;20036;-75
2023/01/15 01:04:48;;;;;;;4.80;1.08;;;9.00;85.00;;;;;;5076523;28;20056;-76
2023/01/15 01:07:14;;;;;;;1.80;0.77;;;9.00;85.50;;;;;;5060028;28;20027;-76
2023/01/15 01:09:39;;;;;;;2.53;0.70;;;9.00;86.10;;;;;;5094007;28;20028;-75
2023/01/15 01:12:05;;;;;;;3.58;0.85;;;9.00;86.40;;;;;;5076473;28;20028;-75
2023/01/15 01:14:31;;;;;;;3.88;0.82;;;8.90;86.70;;;;;;5076294;28;20017;-75
2023/01/15 01:16:56;;;;;;;1.70;1.00;;;8.90;87.20;;;;;;5093993;28;20024;-75
2023/01/15 01:19:24;;;;;;;3.83;0.82;;;8.80;87.20;;;;;;5093925;28;20044;-75
2023/01/15 01:21:51;;;;;;;3.72;0.85;;;8.80;87.40;;;;;;5076067;28;20056;-76
2023/01/15 01:24:19;;;;;;;5.20;0.95;;;8.80;87.90;;;;;;5059591;28;20021;-75
2023/01/15 01:26:45;;;;;;;6.63;1.10;;;8.80;87.10;;;;;;5076141;28;20059;-75
2023/01/15 01:29:16;;;;;;;3.42;1.02;;;8.80;86.80;;;;;;5075987;28;20469;-76
2023/01/15 01:31:42;;;;;;;3.50;0.95;;;8.90;86.40;;;;;;5076256;28;20016;-75
2023/01/15 01:34:09;;;;;;;2.78;0.80;;;8.80;85.70;;;;;;5059382;28;20055;-75
2023/01/15 01:36:37;;;;;;;2.85;1.35;;;8.80;85.50;;;;;;5093687;28;20485;-75
2023/01/15 01:39:04;;;;;;;6.60;1.25;;;8.70;86.00;;;;;;5075520;28;20040;-75
2023/01/15 01:41:30;;;;;;;3.35;0.90;;;8.70;86.30;;;;;;5075826;28;20048;-75
2023/01/15 01:44:04;;;;;;;3.35;0.98;;;8.70;85.00;;;;;;5076010;28;20028;-76
2023/01/15 01:46:33;;;;;;;5.15;0.88;;;8.70;84.80;;;;;;5093566;28;20024;-76
2023/01/15 01:49:16;;;;;;;6.05;1.25;;;8.60;85.10;;;;;;5075728;28;20040;-76
2023/01/15 01:51:56;;;;;;;4.45;0.60;;;8.70;85.00;;;;;;5093541;28;20106;-75
2023/01/15 01:54:24;;;;;;;5.40;0.90;;;8.70;85.00;;;;;;5075861;28;20025;-75
2023/01/15 01:56:50;;;;;;;2.20;0.70;;;8.60;84.60;;;;;;5075651;28;20047;-76
2023/01/15 01:59:18;;;;;;;4.15;0.68;;;8.70;85.20;;;;;;5059209;28;20029;-75
2023/01/15 02:01:44;;;;;;;6.07;2.05;;;8.60;84.80;;;;;;5075535;28;20021;-76
2023/01/15 02:04:11;;;;;;;3.78;0.90;;;8.60;84.90;;;;;;5093436;28;20035;-75
2023/01/15 02:06:38;;;;;;;2.40;1.00;;;8.60;84.90;;;;;;5093276;28;20103;-76
2023/01/15 02:09:04;;;;;;;7.60;1.30;;;8.60;85.10;;;;;;5093118;28;20032;-76
2023/01/15 02:11:31;;;;;;;5.45;0.65;;;8.60;85.00;;;;;;5075599;28;20033;-75
2023/01/15 02:14:29;;;;;;;2.72;0.80;;;8.60;84.90;;;;;;5058800;28;20028;-75
2023/01/15 02:17:12;;;;;;;4.32;0.68;;;8.60;85.10;;;;;;5093389;28;20076;-75
2023/01/15 02:20:09;;;;;;;5.45;1.02;;;8.60;85.00;;;;;;5093153;28;20048;-76
2023/01/15 02:23:20;;;;;;;2.78;0.75;;;8.60;84.00;;;;;;5075481;28;20059;-75
2023/01/15 02:26:04;;;;;;;3.78;0.65;;;8.60;84.80;;;;;;5071560;28;20033;-76
2023/01/15 02:28:57;;;;;;;2.03;0.95;;;8.50;84.70;;;;;;5075343;28;20035;-75
2023/01/15 02:31:32;;;;;;;;;;;8.50;84.00;;;;;;5089398;28;20044;-75
2023/01/15 02:34:09;;;;;;;4.72;0.85;;;8.50;84.40;;;;;;5075243;28;20301;-75
2023/01/15 02:36:39;;;;;;;3.25;0.82;;;8.50;84.60;;;;;;5075271;28;20092;-76
2023/01/15 02:39:09;;;;;;;2.78;0.80;;;8.40;84.80;;;;;;5093006;28;20028;-76
2023/01/15 02:41:40;;;;;;;3.05;0.52;;;8.40;84.30;;;;;;5075286;28;20096;-75
2023/01/15 02:44:09;;;;;;;4.63;0.73;;;8.40;84.90;;;;;;5092984;28;20025;-76
2023/01/15 02:46:37;;;;;;;3.63;0.70;;;8.40;84.40;;;;;;5092916;28;20024;-76
2023/01/15 02:49:06;;;;;;;2.90;0.40;;;8.50;84.70;;;;;;5092812;28;20025;-75
2023/01/15 02:52:04;;;;;;;7.25;1.00;;;8.40;84.10;;;;;;5075984;28;20017;-76
2023/01/15 02:54:36;;;;;;;4.65;0.70;;;8.40;84.20;;;;;;5059335;28;20096;-76
2023/01/15 02:57:03;;;;;;;5.60;0.98;;;8.40;84.00;;;;;;5096734;28;20023;-76
2023/01/15 02:59:44;;;;;;;4.30;1.00;;;8.40;84.60;;;;;;5096625;28;20025;-75
2023/01/15 03:02:19;;;;;;;6.85;0.93;;;8.30;84.10;;;;;;5096586;28;20016;-76
2023/01/15 03:04:55;;;;;;;4.07;0.75;;;8.30;84.80;;;;;;5078822;28;20088;-75
2023/01/15 03:07:41;;;;;;;2.97;0.68;;;8.30;84.30;;;;;;5078859;28;20026;-75
2023/01/15 03:10:08;;;;;;;1.38;0.40;;;8.30;84.60;;;;;;5078598;28;20037;-76
2023/01/15 03:13:04;;;;;;;2.10;0.47;;;8.30;84.90;;;;;;5096381;28;20036;-76
2023/01/15 03:18:43;;;;;;;3.05;0.70;;;8.30;84.80;;;;;;5096554;28;20085;-75
2023/01/15 03:21:12;;;;;;;4.78;1.17;;;8.30;84.30;;;;;;5096111;28;20041;-75
2023/01/15 03:23:43;;;;;;;6.07;0.90;;;8.30;84.80;;;;;;5078444;28;20023;-76
2023/01/15 03:26:09;;;;;;;4.07;0.75;;;8.20;84.50;;;;;;5096217;28;20079;-75
2023/01/15 03:28:37;;;;;;;4.10;1.05;;;8.30;84.40;;;;;;5061800;28;20029;-75
2023/01/15 03:31:03;;;;;;;4.00;0.63;;;8.20;83.90;;;;;;5095809;28;20024;-75
2023/01/15 03:33:29;;;;;;;3.22;0.90;;;8.30;84.00;;;;;;5061575;28;20560;-75
2023/01/15 03:35:57;;;;;;;7.18;1.15;;;8.30;83.90;;;;;;5095938;28;20020;-75
2023/01/15 03:38:35;;;;;;;4.82;1.33;;;8.30;83.50;;;;;;5095928;28;20031;-75
2023/01/15 03:41:19;;;;;;;3.90;0.77;;;8.30;83.70;;;;;;5095912;28;20085;-74
2023/01/15 03:43:54;;;;;;;6.30;0.95;;;8.30;83.40;;;;;;5078087;28;20028;-75
2023/01/15 03:46:25;;;;;;;2.05;0.85;;;8.20;83.30;;;;;;5078041;28;20117;-75
2023/01/15 03:49:19;;;;;;;3.78;1.27;;;8.20;83.10;;;;;;5077965;28;20482;-75
2023/01/15 03:52:00;;;;;;;3.22;1.23;;;8.20;83.00;;;;;;5048968;28;20032;-75
2023/01/15 03:54:47;;;;;;;2.83;0.70;;;8.20;83.00;;;;;;5078026;28;20020;-75
2023/01/15 03:57:29;;;;;;;4.30;0.73;;;8.20;83.20;;;;;;5077839;28;20031;-76
2023/01/15 03:59:58;;;;;;;3.80;1.05;;;8.20;83.60;;;;;;5095542;28;20021;-75
2023/01/15 04:02:26;;;;;;;3.00;0.45;;;8.20;83.00;;;;;;5095149;28;20056;-76
2023/01/15 04:04:53;;;;;;;2.63;0.85;;;8.20;82.70;;;;;;5095446;28;20033;-76
2023/01/15 04:07:19;;;;;;;6.40;0.60;;;8.20;83.20;;;;;;5077589;28;20048;-75
2023/01/15 04:09:45;;;;;;;3.53;0.88;;;8.20;82.80;;;;;;5060941;28;20033;-75
2023/01/15 04:12:11;;;;;;;9.70;0.90;;;8.20;82.80;;;;;;5060877;28;20088;-75
2023/01/15 04:14:37;;;;;;;5.28;0.65;;;8.20;82.50;;;;;;5095267;28;20054;-75
2023/01/15 04:17:03;;;;;;;11.02;1.33;;;8.20;82.50;;;;;;5095234;28;20032;-75
2023/01/15 04:19:28;;;;;;;6.63;0.93;;;8.20;82.60;;;;;;5095154;28;20070;-75
2023/01/15 04:21:54;;;;;;;8.05;1.77;;;8.20;82.00;;;;;;5044068;28;20056;-75
2023/01/15 04:24:19;;;;;;;8.98;1.05;;;8.10;82.40;;;;;;5077392;28;20036;-76
2023/01/15 04:26:45;;;;;;;3.70;1.40;;;8.20;82.60;;;;;;5095005;28;20029;-76
2023/01/15 04:29:11;;;;;;;7.97;1.10;;;8.10;82.30;;;;;;5077233;28;20040;-76
2023/01/15 04:31:36;;;;;;;2.08;0.70;;;8.10;82.60;;;;;;5060629;28;20032;-75
2023/01/15 04:34:03;;;;;;;6.78;0.73;;;8.10;82.20;;;;;;5077238;28;20050;-75
2023/01/15 04:36:28;;;;;;;5.10;0.43;;;8.10;82.40;;;;;;5060575;28;20016;-75
2023/01/15 04:38:56;;;;;;;5.55;1.17;;;8.10;82.10;;;;;;5094758;28;20054;-76
2023/01/15 04:44:06;;;;;;;4.32;0.40;;;7.90;81.90;;;;;;5094941;28;20051;-76
2023/01/15 04:46:36;;;;;;;2.75;0.95;;;8.00;82.10;;;;;;5060454;28;20025;-75
2023/01/15 04:49:02;;;;;;;11.15;1.48;;;8.00;82.30;;;;;;5076881;28;20028;-75
2023/01/15 04:51:28;;;;;;;1.60;0.30;;;8.00;82.50;;;;;;5094526;28;20074;-75
2023/01/15 04:53:54;;;;;;;1.63;0.52;;;8.00;82.10;;;;;;5043570;28;20029;-75
2023/01/15 04:56:19;;;;;;;4.82;1.33;;;7.90;81.80;;;;;;5060085;28;20024;-75
2023/01/15 04:58:45;;;;;;;4.53;0.70;;;7.90;82.10;;;;;;5060243;28;20028;-76
2023/01/15 05:01:16;;;;;;;4.40;0.75;;;8.00;82.40;;;;;;5076840;28;20024;-75
2023/01/15 05:03:42;;;;;;;3.13;0.60;;;8.00;81.30;;;;;;5076611;28;20027;-75
2023/01/15 05:06:08;;;;;;;6.10;0.80;;;8.00;81.70;;;;;;5094177;28;20028;-75
2023/01/15 05:08:34;;;;;;;5.65;0.88;;;8.00;82.10;;;;;;5076533;28;20032;-75
2023/01/15 05:11:05;;;;;;;3.15;0.65;;;8.00;82.20;;;;;;5059695;28;20031;-75
2023/01/15 05:13:32;;;;;;;4.63;1.00;;;8.00;82.00;;;;;;5076213;28;20020;-76
2023/01/15 05:16:15;;;;;;;4.45;0.80;;;8.00;82.10;;;;;;5076085;28;20024;-75
2023/01/15 05:18:42;;;;;;;2.65;0.50;;;8.00;82.30;;;;;;5076311;28;20021;-76
2023/01/15 05:21:24;;;;;;;5.72;0.55;;;8.00;82.20;;;;;;5076169;28;20123;-76
2023/01/15 05:23:52;;;;;;;2.97;0.80;;;8.00;82.30;;;;;;5093957;28;20031;-75
2023/01/15 05:26:19;;;;;;;4.90;0.88;;;7.90;82.30;;;;;;5093809;28;20027;-75
2023/01/15 05:28:45;;;;;;;3.25;1.00;;;8.00;82.60;;;;;;5076374;28;20028;-75
2023/01/15 05:31:13;;;;;;;5.47;0.68;;;7.90;82.40;;;;;;5076065;28;20033;-75
2023/01/15 05:33:39;;;;;;;3.92;0.68;;;7.90;82.30;;;;;;5093774;28;20039;-76
2023/01/15 05:36:08;;;;;;;5.68;0.88;;;7.90;82.40;;;;;;5075929;28;20020;-75
2023/01/15 05:38:34;;;;;;;3.53;0.50;;;7.90;82.90;;;;;;5093606;28;20051;-76
2023/01/15 05:41:47;;;;;;;0.63;0.32;;;7.90;82.90;;;;;;5093662;28;20047;-75
2023/01/15 05:43:52;;;;;;;6.90;1.20;;;7.90;82.70;;;;;;5078698;28;20032;-75
2023/01/15 05:46:18;;;;;;;4.32;0.88;;;7.90;82.80;;;;;;5075902;28;20055;-75
2023/01/15 05:48:43;;;;;;;4.68;0.63;;;7.90;82.20;;;;;;5059083;28;20055;-75
2023/01/15 05:51:09;;;;;;;3.25;0.80;;;7.80;82.30;;;;;;5059186;28;20031;-75
2023/01/15 05:53:35;;;;;;;4.40;0.98;;;7.90;82.70;;;;;;5042626;28;20062;-75
2023/01/15 05:56:01;;;;;;;4.80;0.68;;;7.80;82.70;;;;;;5059125;28;20020;-75
2023/01/15 05:58:26;;;;;;;6.55;0.93;;;7.80;82.70;;;;;;5075636;28;20096;-74
2023/01/15 06:00:53;;;;;;;7.55;1.48;;;7.80;82.20;;;;;;5075555;28;20029;-75
2023/01/15 06:03:21;;;;;;;6.03;0.80;;;7.80;81.90;;;;;;5059491;28;20029;-75
2023/01/15 06:05:54;;;;;;;3.17;0.85;;;7.80;82.10;;;;;;5058947;28;20044;-75
2023/01/15 06:08:20;;;;;;;3.92;0.65;;;7.80;82.30;;;;;;5058811;28;20025;-75
2023/01/15 06:10:46;;;;;;;2.22;1.15;;;7.80;82.60;;;;;;5093204;28;20024;-75
2023/01/15 06:13:13;;;;;;;4.40;0.90;;;7.80;82.30;;;;;;5075728;28;20031;-75
2023/01/15 06:15:39;;;;;;;4.40;0.38;;;7.80;82.20;;;;;;5093251;28;20020;-75
2023/01/15 06:18:05;;;;;;;5.80;1.13;;;7.80;82.20;;;;;;5093202;28;20032;-75
2023/01/15 06:20:30;;;;;;;5.75;0.70;;;7.80;82.50;;;;;;5058617;28;20501;-75
2023/01/15 06:22:56;;;;;;;5.40;1.52;;;7.80;82.50;;;;;;5058786;28;20439;-75
2023/01/15 06:25:21;;;;;;;3.53;0.88;;;7.80;82.80;;;;;;5076073;28;20047;-75
2023/01/15 06:27:48;;;;;;;6.65;0.82;;;7.80;83.00;;;;;;5079822;28;20466;-75
2023/01/15 06:30:14;;;;;;;4.82;0.77;;;7.80;83.10;;;;;;5097183;28;20021;-76
2023/01/15 06:32:40;;;;;;;2.80;1.08;;;7.80;83.90;;;;;;5079385;28;20012;-75
2023/01/15 06:35:06;;;;;;;2.78;0.43;;;7.80;84.70;;;;;;5062718;28;20059;-75
2023/01/15 06:37:32;;;;;;;2.17;1.13;;;7.70;85.10;;;;;;5097124;28;20088;-75
2023/01/15 06:39:58;;;;;;;2.45;0.77;;;7.70;86.10;;;;;;5062632;28;20062;-75
2023/01/15 06:47:55;;;;;;;6.45;1.30;;;7.70;87.20;;;;;;5097175;28;20099;-75
2023/01/15 06:50:20;;;;;;;4.78;1.33;;;7.70;87.70;;;;;;5062360;28;20062;-75
2023/01/15 06:52:46;;;;;;;5.68;0.90;;;7.70;88.30;;;;;;5096796;28;20048;-75
2023/01/15 06:55:11;;;;;;;8.18;1.02;;;7.70;87.90;;;;;;5062310;28;20034;-76
2023/01/15 06:57:38;;;;;;;4.05;0.77;;;7.70;87.50;;;;;;5062323;28;20024;-75
2023/01/15 07:00:05;;;;;;;9.10;1.50;;;7.70;86.60;;;;;;5096671;28;20020;-75
2023/01/15 07:02:31;;;;;;;5.15;0.82;;;7.70;86.50;;;;;;5062471;28;20039;-75
2023/01/15 07:04:56;;;;;;;1.10;0.55;;;7.70;86.40;;;;;;5078857;28;20036;-75
2023/01/15 07:07:22;;;;;;;4.03;1.13;;;7.70;86.00;;;;;;5078821;28;20035;-75
2023/01/15 07:09:48;;;;;;;5.07;1.05;;;7.60;86.30;;;;;;5061862;28;20029;-75
2023/01/15 07:12:14;;;;;;;3.03;0.70;;;7.60;85.90;;;;;;5096415;28;20051;-75
2023/01/15 07:14:39;;;;;;;2.92;0.70;;;7.60;85.80;;;;;;5078818;28;20033;-75
2023/01/15 07:17:05;;;;;;;2.05;0.55;;;7.60;85.60;;;;;;5078665;28;20036;-75
2023/01/15 07:19:32;;;;;;;3.47;0.68;;;7.60;85.00;;;;;;5078540;28;20100;-75
2023/01/15 07:21:57;;;;;;;4.90;0.80;;;7.60;85.10;;;;;;5078397;28;20080;-75
2023/01/15 07:24:23;;;;;;;1.83;0.40;;;7.60;85.10;;;;;;5078524;28;20041;-75
2023/01/15 07:26:49;;;;;;;6.53;0.55;;;7.60;84.70;;;;;;5061857;28;20033;-74
2023/01/15 07:29:14;;;;;;;3.70;0.75;;;7.50;84.60;;;;;;5078405;28;20025;-75
2023/01/15 07:31:40;;;;;;;3.53;0.43;;;7.50;84.30;;;;;;5061901;28;20443;-75
2023/01/15 07:34:06;;;;;;;8.50;1.02;;;7.50;84.20;;;;;;5061688;28;20028;-75
2023/01/15 07:36:31;;;;;;;6.50;0.88;;;7.50;84.00;;;;;;5078420;28;20039;-74
2023/01/15 07:38:57;;;;;;;1.70;0.40;;;7.40;84.30;;;;;;5044292;28;20024;-74
2023/01/15 07:49:45;;;;;;;3.95;0.88;;;7.30;85.10;;;;;;5095939;28;20062;-75
2023/01/15 07:52:12;;;;;;;5.60;0.67;;;7.40;84.90;;;;;;5095815;28;20046;-75
2023/01/15 07:54:38;;;;;;;3.75;0.88;;;7.30;84.90;;;;;;5095668;28;20029;-74
2023/01/15 07:57:04;;;;;;;2.33;0.30;;;7.30;85.00;;;;;;5095623;28;20048;-75
2023/01/15 07:59:30;;;;;;;7.35;1.20;;;7.30;84.40;;;;;;5095565;28;20489;-75
2023/01/15 08:01:56;;;;;;;2.08;0.73;;;7.40;84.30;;;;;;5095569;28;20059;-74
2023/01/15 08:04:21;;;;;;;5.53;1.70;;;7.40;83.60;;;;;;5044562;28;20025;-75
2023/01/15 08:06:47;;;;;;;3.53;1.10;;;7.40;83.80;;;;;;5095415;28;20036;-74
2023/01/15 08:09:13;;;;;;;4.40;1.30;;;7.40;83.10;;;;;;5077593;28;20040;-75
2023/01/15 08:17:06;;;;;;;6.38;1.83;;;7.40;82.40;;;;;;5095367;28;20040;-75
2023/01/15 08:19:32;;;;;;;2.88;0.30;;;7.40;82.50;;;;;;5044290;28;20029;-75
2023/01/15 08:22:00;;;;;;;5.00;1.05;;;7.40;82.20;;;;;;5060640;28;20082;-75
2023/01/15 08:24:25;;;;;;;2.72;0.80;;;7.40;82.40;;;;;;5095056;28;20017;-74
2023/01/15 08:26:52;;;;;;;1.38;0.55;;;7.40;82.20;;;;;;5077493;28;20133;-74
2023/01/15 08:29:18;;;;;;;3.00;0.82;;;7.40;82.30;;;;;;5060566;28;20036;-74
2023/01/15 08:31:44;;;;;;;2.85;0.80;;;7.30;82.20;;;;;;5094904;28;20020;-74
2023/01/15 08:34:10;;;;;;;3.30;0.98;;;7.30;82.00;;;;;;5077113;28;20040;-74
2023/01/15 08:36:37;;;;;;;2.40;0.70;;;7.40;82.30;;;;;;5077312;28;20035;-74
2023/01/15 08:39:03;;;;;;;3.00;0.80;;;7.40;81.40;;;;;;5077271;28;20059;-75
2023/01/15 08:41:29;;;;;;;2.25;0.75;;;7.50;81.50;;;;;;5060463;28;20033;-75
2023/01/15 08:43:55;;;;;;;4.70;1.10;;;7.50;81.10;;;;;;5043907;28;20024;-75
2023/01/15 08:46:21;;;;;;;5.88;0.95;;;7.60;80.60;;;;;;5094662;28;20497;-75
2023/01/15 08:48:47;;;;;;;2.80;0.98;;;7.70;80.00;;;;;;5076045;28;20047;-75
2023/01/15 08:51:13;;;;;;;3.25;1.00;;;7.70;79.60;;;;;;5060037;28;20534;-75
2023/01/15 08:53:38;;;;;;;2.33;1.25;;;7.70;79.90;;;;;;5076757;28;20096;-76
2023/01/15 08:56:12;;;;;;;3.20;0.90;;;7.90;79.50;;;;;;5060108;28;20048;-76
2023/01/15 08:58:37;;;;;;;4.68;0.68;;;8.00;78.70;;;;;;5094444;28;20047;-75
2023/01/15 09:01:08;;;;;;;2.80;0.80;;;8.30;77.70;;;;;;5043508;28;20062;-75
2023/01/15 09:03:35;;;;;;;0.93;0.40;;;8.50;76.90;;;;;;5076575;28;20033;-75
2023/01/15 09:06:02;;;;;;;4.32;1.10;;;8.70;75.60;;;;;;5094256;28;20036;-75
2023/01/15 09:08:28;;;;;;;2.45;0.38;;;8.90;75.70;;;;;;5060025;28;20041;-75
2023/01/15 09:11:02;;;;;;;3.85;0.70;;;9.10;74.30;;;;;;5094041;28;20081;-75
2023/01/15 09:13:28;;;;;;;2.55;0.40;;;9.30;73.60;;;;;;5094247;28;20088;-75
2023/01/15 09:16:01;;;;;;;2.50;1.17;;;9.40;72.80;;;;;;5094021;28;20036;-75
2023/01/15 09:18:28;;;;;;;2.53;0.93;;;9.60;72.90;;;;;;5076354;28;20044;-75
2023/01/15 09:20:53;;;;;;;4.03;0.93;;;9.80;72.40;;;;;;5076098;28;20048;-75
2023/01/15 09:23:19;;;;;;;5.10;0.80;;;10.00;72.10;;;;;;5093946;28;20028;-75
2023/01/15 09:25:52;;;;;;;3.25;0.80;;;10.00;70.90;;;;;;5093899;28;20051;-75
2023/01/15 09:28:18;;;;;;;6.03;0.77;;;10.20;70.20;;;;;;5093832;28;20100;-76
2023/01/15 09:30:43;;;;;;;3.72;0.75;;;10.30;70.40;;;;;;5076075;28;20040;-75
2023/01/15 09:33:10;;;;;;;4.30;0.60;;;10.40;69.80;;;;;;5059485;28;20100;-75
2023/01/15 09:35:35;;;;;;;8.80;0.90;;;10.30;69.30;;;;;;5076030;28;20021;-75
2023/01/15 09:38:01;;;;;;;3.40;0.70;;;10.20;69.30;;;;;;5076066;28;20036;-76
2023/01/15 09:40:56;;;;;;;3.17;1.10;;;10.20;70.20;;;;;;5059333;28;20020;-75
2023/01/15 09:44:16;;;;;;;5.05;0.80;;;10.20;70.30;;;;;;5093812;28;20040;-75
2023/01/15 09:46:56;;;;;;;2.15;0.93;;;10.30;69.80;;;;;;4976564;28;20035;-74
2023/01/15 09:49:38;;;;;;;4.03;0.75;;;10.20;70.60;;;;;;5082392;28;20056;-75
2023/01/15 09:52:23;;;;;;;6.30;1.63;;;10.50;70.10;;;;;;5075894;28;20031;-75
2023/01/15 09:54:59;;;;;;;3.35;0.40;;;10.50;69.60;;;;;;5075746;28;20028;-75
2023/01/15 09:57:26;;;;;;;4.22;1.48;;;10.50;69.40;;;;;;5075568;28;20031;-74
2023/01/15 09:59:59;;;;;;;3.33;0.60;;;10.40;69.70;;;;;;5075623;28;20028;-75
2023/01/15 10:02:43;;;;;;;6.38;1.30;;;10.30;70.10;;;;;;5076471;28;20028;-75
2023/01/15 10:05:25;;;;;;;3.70;1.10;;;10.20;70.10;;;;;;5093421;28;20086;-75
2023/01/15 10:08:03;;;;;;;3.50;0.80;;;9.60;71.20;;;;;;5075622;28;20091;-75
2023/01/15 10:10:38;;;;;;;3.50;0.30;;;9.30;72.20;;;;;;5093273;28;20055;-75
2023/01/15 10:13:14;;;;;;;6.05;0.90;;;9.30;71.70;;;;;;5093303;28;20501;-75
2023/01/15 10:15:46;;;;;;;2.08;0.50;;;9.30;72.20;;;;;;5075564;28;20013;-75
2023/01/15 10:18:24;;;;;;;3.25;0.45;;;9.30;73.20;;;;;;5093286;28;20032;-75
2023/01/15 10:21:12;;;;;;;3.58;0.60;;;9.40;73.40;;;;;;5051002;28;20056;-75
2023/01/15 10:23:48;;;;;;;2.17;0.73;;;9.50;73.00;;;;;;5052233;28;20107;-75
2023/01/15 10:26:39;;;;;;;4.57;1.08;;;9.60;73.10;;;;;;5053039;28;20085;-75
2023/01/15 10:29:21;;;;;;;4.05;0.88;;;9.70;72.50;;;;;;5051997;28;20021;-74
2023/01/15 10:31:50;;;;;;;;;;;9.50;72.00;;;;;;5053472;28;20109;-74
2023/01/15 10:34:24;;;;;;;3.42;0.57;;;9.50;71.60;;;;;;5051986;28;19905;-75
2023/01/15 10:36:58;;;;;;;2.30;0.65;;;9.70;72.70;;;;;;5052999;28;20060;-74
2023/01/15 10:39:38;;;;;;;5.00;0.93;;;9.70;71.50;;;;;;5052045;28;20029;-74
2023/01/15 10:42:28;;;;;;;0.95;0.40;;;9.30;72.30;;;;;;5052968;28;20116;-74
2023/01/15 10:45:38;;;;;;;3.05;1.08;;;9.50;72.40;;;;;;5053087;28;20033;-75
2023/01/15 10:48:13;;;;;;;4.28;0.73;;;9.50;71.70;;;;;;5051655;28;20097;-75
2023/01/15 10:50:40;;;;;;;3.95;0.60;;;9.30;72.00;;;;;;5052799;28;20026;-74
2023/01/15 10:53:24;;;;;;;2.55;0.65;;;9.10;73.00;;;;;;5051871;28;20034;-74
2023/01/15 10:55:53;;;;;;;6.63;1.27;;;9.10;73.70;;;;;;5052858;28;20032;-74
2023/01/15 10:59:04;;;;;;;2.92;0.90;;;9.10;74.30;;;;;;5052777;28;20025;-75
2023/01/15 11:01:30;;;;;;;2.45;0.73;;;9.10;75.00;;;;;;5014605;28;20028;-74
2023/01/15 11:03:55;;;;;;;1.85;0.32;;;9.10;74.50;;;;;;5046215;28;20057;-75
2023/01/15 11:06:24;;;;;;;7.13;0.88;;;9.00;74.80;;;;;;5035225;28;20029;-75
2023/01/15 11:08:56;;;;;;;1.65;0.30;;;8.90;75.10;;;;;;5052632;28;20025;-74
2023/01/15 11:20:20;;;;;;;3.17;0.55;;;8.80;75.40;;;;;;5056450;28;20093;-76
2023/01/15 11:22:45;;;;;;;2.22;0.77;;;8.70;75.00;;;;;;5096268;28;20036;-75
2023/01/15 11:25:12;;;;;;;8.05;0.98;;;8.70;74.50;;;;;;5061873;28;20052;-74
2023/01/15 11:27:38;;;;;;;3.00;0.98;;;8.70;75.10;;;;;;5078506;28;20025;-74
2023/01/15 11:30:06;;;;;;;3.72;0.40;;;8.70;75.20;;;;;;5061679;28;20054;-75
2023/01/15 11:32:33;;;;;;;5.40;0.80;;;8.60;75.00;;;;;;5078383;28;20017;-75
2023/01/15 11:35:14;;;;;;;1.45;0.55;;;8.70;75.20;;;;;;5078246;28;20021;-75
2023/01/15 11:37:40;;;;;;;3.97;1.17;;;8.70;75.00;;;;;;5078393;28;20036;-75
2023/01/15 11:40:17;;;;;;;4.10;0.90;;;8.70;75.60;;;;;;5095954;28;20027;-75
2023/01/15 11:51:08;;;;;;;3.60;0.65;;;8.50;76.60;;;;;;5095896;28;20088;-75
2023/01/15 11:53:45;;;;;;;2.42;0.77;;;8.50;76.50;;;;;;5095705;28;20017;-75
2023/01/15 11:56:17;;;;;;;3.42;0.60;;;8.50;76.40;;;;;;5077940;28;20089;-74
2023/01/15 11:58:54;;;;;;;3.42;0.90;;;8.50;76.70;;;;;;5095645;28;20025;-74
2023/01/15 12:01:33;;;;;;;2.17;0.47;;;8.60;76.40;;;;;;5077883;28;20029;-75
2023/01/15 12:04:42;;;;;;;3.05;0.82;;;8.60;77.00;;;;;;5077950;28;20021;-74
2023/01/15 12:07:14;;;;;;;1.33;0.30;;;8.50;76.80;;;;;;5063347;28;20033;-75
2023/01/15 12:10:13;;;;;;;5.40;0.98;;;8.50;77.30;;;;;;5095323;28;20027;-75
2023/01/15 12:13:25;;;;;;;1.77;0.28;;;8.50;78.10;;;;;;5095506;28;20023;-75
2023/01/15 12:16:19;;;;;;;11.18;1.23;;;8.50;77.20;;;;;;5082380;28;20041;-75
2023/01/15 12:18:59;;;;;;;1.90;0.68;;;8.40;77.20;;;;;;5077387;28;20039;-74
2023/01/15 12:21:54;;;;;;;1.33;0.50;;;8.40;78.20;;;;;;5095099;28;20068;-75
2023/01/15 12:24:45;;;;;;;3.20;1.05;;;8.40;79.30;;;;;;5077142;28;20028;-74
2023/01/15 12:27:48;;;;;;;3.95;0.80;;;8.40;79.70;;;;;;5095245;28;20090;-74
2023/01/15 12:30:26;;;;;;;1.67;0.60;;;8.30;80.90;;;;;;5095016;28;20044;-74
2023/01/15 12:33:05;;;;;;;0.75;0.35;;;8.30;80.50;;;;;;5095001;28;20024;-74
2023/01/15 12:35:36;;;;;;;2.80;0.90;;;8.30;80.40;;;;;;5077205;28;20084;-74
2023/01/15 12:38:08;;;;;;;2.97;1.02;;;8.20;79.90;;;;;;5094908;28;20031;-74
2023/01/15 12:40:45;;;;;;;3.53;0.95;;;8.30;80.20;;;;;;5077117;28;20032;-74
2023/01/15 12:46:29;;;;;;;1.65;0.47;;;8.20;80.00;;;;;;5094916;28;20059;-74
2023/01/15 12:49:23;;;;;;;4.15;1.30;;;8.20;80.70;;;;;;5076783;28;20059;-74
2023/01/15 12:52:12;;;;;;;3.80;0.80;;;8.10;80.70;;;;;;5094565;28;20027;-74
2023/01/15 12:54:46;;;;;;;2.67;0.60;;;8.20;80.40;;;;;;5094543;28;20035;-74
2023/01/15 12:57:23;;;;;;;1.90;0.57;;;8.20;79.30;;;;;;5076802;28;20103;-74
2023/01/15 13:00:12;;;;;;;1.50;0.75;;;8.20;79.30;;;;;;5076695;28;20025;-74
2023/01/15 13:02:47;;;;;;;1.45;0.60;;;8.30;79.90;;;;;;5080919;28;20035;-74
2023/01/15 13:05:27;;;;;;;0.73;0.50;;;8.20;80.50;;;;;;5076610;28;20028;-74
2023/01/15 13:08:05;;;;;;;1.02;0.50;;;8.10;80.50;;;;;;5076441;28;20021;-74
2023/01/15 13:10:35;;;;;;;4.10;0.95;;;8.20;80.20;;;;;;5094155;28;20028;-74
2023/01/15 13:13:21;;;;;;;2.45;0.80;;;8.20;80.30;;;;;;5076418;28;20088;-74
2023/01/15 13:16:12;;;;;;;2.00;0.77;;;8.20;80.60;;;;;;5094083;28;20015;-74
2023/01/15 13:18:49;;;;;;;3.78;0.63;;;8.30;80.00;;;;;;5076336;28;20020;-74
2023/01/15 13:21:19;;;;;;;2.50;0.52;;;8.20;81.00;;;;;;5093976;28;20046;-74
2023/01/15 13:24:21;;;;;;;1.30;0.50;;;8.20;80.60;;;;;;5059760;28;20102;-74
2023/01/15 13:27:13;;;;;;;3.13;0.40;;;8.20;81.00;;;;;;5076183;28;20085;-74
2023/01/15 13:29:50;;;;;;;1.48;0.55;;;8.20;79.90;;;;;;5093805;28;20082;-74
2023/01/15 13:32:29;;;;;;;2.97;0.85;;;8.20;80.20;;;;;;5093882;28;20016;-74
2023/01/15 13:35:18;;;;;;;4.68;0.70;;;8.20;80.50;;;;;;5093261;28;20055;-74
2023/01/15 13:37:51;;;;;;;1.23;0.60;;;8.20;80.10;;;;;;5076060;28;20450;-74
2023/01/15 13:40:49;;;;;;;3.88;0.80;;;8.30;80.00;;;;;;5075959;28;20021;-74
2023/01/15 13:43:28;;;;;;;5.40;0.73;;;8.30;79.90;;;;;;5093654;28;20021;-74
2023/01/15 13:45:55;;;;;;;3.50;1.08;;;8.30;78.70;;;;;;5075924;28;20031;-74
2023/01/15 13:48:28;;;;;;;3.58;0.60;;;8.40;79.70;;;;;;5059257;28;20035;-74
2023/01/15 13:50:56;;;;;;;;;;;8.40;78.60;;;;;;5076146;28;20054;-74
2023/01/15 13:53:29;;;;;;;1.15;0.50;;;8.40;78.90;;;;;;5075758;28;19912;-74
2023/01/15 13:56:05;;;;;;;0.88;0.40;;;8.30;79.20;;;;;;5075774;28;20059;-74
2023/01/15 13:58:33;;;;;;;1.65;0.60;;;8.30;79.10;;;;;;5075730;28;20017;-74
2023/01/15 14:01:25;;;;;;;2.08;0.60;;;8.30;82.10;;;;;;5093369;28;20059;-74
2023/01/15 14:04:02;;;;;;;3.10;0.88;;;8.20;82.50;;;;;;5070948;28;20028;-74
2023/01/15 14:06:51;;;;;;;1.15;0.60;;;8.20;82.80;;;;;;5093510;28;20055;-74
2023/01/15 14:09:22;;;;;;;3.50;0.68;;;8.10;82.50;;;;;;5075392;28;20025;-74
2023/01/15 14:12:00;;;;;;;2.85;0.70;;;8.10;82.30;;;;;;5093404;28;20031;-74